Archival Weather

South Haven Area Rgnl

South Haven, Michigan (KLWA)

Report from: Wednesday, December 6, 2023 6:35 AM EST
Current time: Saturday, February 24, 2024 10:57 AM EST

Current weather – Weather history – Daily summaries
Weather forecast

Temperature4.7°C (40.5°F)
Wind chill1.7°C (35.1°F)
Dew point-1.7°C (28.9°F)
Winds 7 kts (3.6 m/s, 8.1 mph) Northwest (310°)
Visibility10 mi. (16.1 km)
Clouds Scattered clouds 3,700 ft. (1,128 m)
Ceiling: Overcast 4,500 ft. (1,372 m)
Altimeter30.21 in.Hg (1023 mB)
Relative humidity63 %
Density altitude-1,494 ft. (-455 m)
Remarks Fully automated report
Automated weather observing station with precipitation discriminator
Flight conditions Visual Meteorological Conditions
Raw dataKLWA 061135Z AUTO 31007KT 10SM SCT037 OVC045 05/M02 A3021 RMK AO2 T00471017
An error has occurred. This application may no longer respond until reloaded. Reload 🗙